sensor_id;sensor_type;location;lat;lon;timestamp;pressure;altitude;pressure_sealevel;temperature;humidity
72921;BME280;61064;51.654;5.476;2023-03-22T00:00:35;100934.47;;;10.07;78.77
72921;BME280;61064;51.654;5.476;2023-03-22T00:03:02;100994.19;;;10.39;78.70
72921;BME280;61064;51.654;5.476;2023-03-22T00:05:28;100965.53;;;10.14;78.81
72921;BME280;61064;51.654;5.476;2023-03-22T00:07:58;100893.47;;;9.84;78.99
72921;BME280;61064;51.654;5.476;2023-03-22T00:10:25;100850.66;;;9.52;79.12
72921;BME280;61064;51.654;5.476;2023-03-22T00:12:52;100766.88;;;9.00;79.03
72921;BME280;61064;51.654;5.476;2023-03-22T00:15:18;100911.19;;;9.83;79.16
72921;BME280;61064;51.654;5.476;2023-03-22T00:17:44;100935.22;;;9.95;79.05
72921;BME280;61064;51.654;5.476;2023-03-22T00:20:10;101003.91;;;10.36;79.16
72921;BME280;61064;51.654;5.476;2023-03-22T00:22:36;100766.00;;;9.01;79.33
72921;BME280;61064;51.654;5.476;2023-03-22T00:25:03;100797.03;;;9.06;79.28
72921;BME280;61064;51.654;5.476;2023-03-22T00:27:29;101004.66;;;10.26;79.65
72921;BME280;61064;51.654;5.476;2023-03-22T00:29:54;100944.09;;;9.96;79.51
72921;BME280;61064;51.654;5.476;2023-03-22T00:32:20;100979.66;;;10.10;79.59
72921;BME280;61064;51.654;5.476;2023-03-22T00:34:45;100975.22;;;10.08;79.47
72921;BME280;61064;51.654;5.476;2023-03-22T00:37:11;100983.31;;;10.17;79.72
72921;BME280;61064;51.654;5.476;2023-03-22T00:39:36;100963.66;;;10.06;79.73
72921;BME280;61064;51.654;5.476;2023-03-22T00:42:05;100969.00;;;10.09;79.72
72921;BME280;61064;51.654;5.476;2023-03-22T00:44:31;100944.97;;;9.96;79.86
72921;BME280;61064;51.654;5.476;2023-03-22T00:46:56;100974.34;;;10.10;79.92
72921;BME280;61064;51.654;5.476;2023-03-22T00:49:21;100939.59;;;9.90;79.78
72921;BME280;61064;51.654;5.476;2023-03-22T00:51:47;100922.72;;;9.85;79.84
72921;BME280;61064;51.654;5.476;2023-03-22T00:54:13;100899.53;;;9.69;80.01
72921;BME280;61064;51.654;5.476;2023-03-22T00:56:38;100956.56;;;10.01;79.77
72921;BME280;61064;51.654;5.476;2023-03-22T00:59:04;100941.34;;;9.88;80.01
72921;BME280;61064;51.654;5.476;2023-03-22T01:01:29;100955.63;;;9.99;80.28
72921;BME280;61064;51.654;5.476;2023-03-22T01:03:55;100936.91;;;9.86;80.31
72921;BME280;61064;51.654;5.476;2023-03-22T01:06:20;100896.78;;;9.65;80.66
72921;BME280;61064;51.654;5.476;2023-03-22T01:08:46;100933.31;;;9.84;80.29
72921;BME280;61064;51.654;5.476;2023-03-22T01:11:15;100925.38;;;9.87;80.39
72921;BME280;61064;51.654;5.476;2023-03-22T01:13:40;100922.72;;;9.87;80.33
72921;BME280;61064;51.654;5.476;2023-03-22T01:16:06;100930.75;;;9.93;80.48
72921;BME280;61064;51.654;5.476;2023-03-22T01:18:32;100890.75;;;9.78;80.42
72921;BME280;61064;51.654;5.476;2023-03-22T01:20:59;100886.31;;;9.78;80.48
72921;BME280;61064;51.654;5.476;2023-03-22T01:23:24;100915.75;;;9.96;80.63
72921;BME280;61064;51.654;5.476;2023-03-22T01:25:50;100858.75;;;9.67;80.71
72921;BME280;61064;51.654;5.476;2023-03-22T01:28:15;100898.00;;;9.95;80.94
72921;BME280;61064;51.654;5.476;2023-03-22T01:30:40;100878.44;;;9.86;80.85
72921;BME280;61064;51.654;5.476;2023-03-22T01:33:06;100880.31;;;9.96;80.81
72921;BME280;61064;51.654;5.476;2023-03-22T01:35:33;100887.41;;;9.97;80.92
72921;BME280;61064;51.654;5.476;2023-03-22T01:37:58;100861.59;;;9.87;81.08
72921;BME280;61064;51.654;5.476;2023-03-22T01:40:25;100860.75;;;9.92;81.07
72921;BME280;61064;51.654;5.476;2023-03-22T01:42:52;100848.34;;;9.88;81.12
72921;BME280;61064;51.654;5.476;2023-03-22T01:48:07;100855.56;;;10.01;81.57
72921;BME280;61064;51.654;5.476;2023-03-22T01:50:35;100831.53;;;9.92;81.52
72921;BME280;61064;51.654;5.476;2023-03-22T01:53:03;100804.03;;;9.87;81.45
72921;BME280;61064;51.654;5.476;2023-03-22T01:55:30;100768.50;;;9.73;81.54
72921;BME280;61064;51.654;5.476;2023-03-22T01:57:58;100791.66;;;9.89;81.59
72921;BME280;61064;51.654;5.476;2023-03-22T02:00:25;100763.22;;;9.78;81.83
72921;BME280;61064;51.654;5.476;2023-03-22T02:02:51;100803.25;;;9.99;81.97
72921;BME280;61064;51.654;5.476;2023-03-22T02:05:18;100789.94;;;9.94;82.13
72921;BME280;61064;51.654;5.476;2023-03-22T02:07:47;100821.22;;;10.24;82.12
72921;BME280;61064;51.654;5.476;2023-03-22T02:10:20;100810.56;;;10.26;82.07
72921;BME280;61064;51.654;5.476;2023-03-22T02:24:36;100810.69;;;10.41;82.38
72921;BME280;61064;51.654;5.476;2023-03-22T02:29:44;100788.50;;;10.39;82.43
72921;BME280;61064;51.654;5.476;2023-03-22T02:32:57;100808.13;;;10.53;82.67
72921;BME280;61064;51.654;5.476;2023-03-22T02:35:25;100798.34;;;10.55;82.50
72921;BME280;61064;51.654;5.476;2023-03-22T02:40:32;100785.06;;;10.55;82.66
72921;BME280;61064;51.654;5.476;2023-03-22T02:43:13;100806.41;;;10.64;82.64
72921;BME280;61064;51.654;5.476;2023-03-22T02:45:53;100794.88;;;10.68;82.44
72921;BME280;61064;51.654;5.476;2023-03-22T02:48:30;100774.41;;;10.54;82.65
72921;BME280;61064;51.654;5.476;2023-03-22T02:51:05;100769.09;;;10.55;82.88
72921;BME280;61064;51.654;5.476;2023-03-22T02:53:45;100794.00;;;10.72;82.90
72921;BME280;61064;51.654;5.476;2023-03-22T02:56:19;100738.03;;;10.50;82.65
72921;BME280;61064;51.654;5.476;2023-03-22T02:58:50;100786.03;;;10.77;82.74
72921;BME280;61064;51.654;5.476;2023-03-22T03:01:22;100738.97;;;10.56;82.77
72921;BME280;61064;51.654;5.476;2023-03-22T03:03:51;100758.53;;;10.64;82.80
72921;BME280;61064;51.654;5.476;2023-03-22T03:06:21;100734.50;;;10.55;82.71
72921;BME280;61064;51.654;5.476;2023-03-22T03:08:50;100770.09;;;10.83;82.76
72921;BME280;61064;51.654;5.476;2023-03-22T03:11:18;100769.22;;;10.84;82.77
72921;BME280;61064;51.654;5.476;2023-03-22T03:13:48;100763.03;;;10.83;82.71
72921;BME280;61064;51.654;5.476;2023-03-22T03:16:15;100752.34;;;10.70;82.64
72921;BME280;61064;51.654;5.476;2023-03-22T03:18:46;100769.22;;;10.82;82.75
72921;BME280;61064;51.654;5.476;2023-03-22T03:21:23;100762.13;;;10.81;82.76
72921;BME280;61064;51.654;5.476;2023-03-22T03:32:07;100763.00;;;10.79;82.77
72921;BME280;61064;51.654;5.476;2023-03-22T03:34:45;100738.09;;;10.65;82.72
72921;BME280;61064;51.654;5.476;2023-03-22T03:37:42;100754.13;;;10.78;82.72
72921;BME280;61064;51.654;5.476;2023-03-22T03:40:15;100731.91;;;10.64;82.68
72921;BME280;61064;51.654;5.476;2023-03-22T03:42:45;100770.97;;;10.77;82.60
72921;BME280;61064;51.654;5.476;2023-03-22T03:45:13;100763.00;;;10.79;82.69
72921;BME280;61064;51.654;5.476;2023-03-22T03:47:41;100720.34;;;10.56;82.56
72921;BME280;61064;51.654;5.476;2023-03-22T03:50:08;100772.75;;;10.77;82.65
72921;BME280;61064;51.654;5.476;2023-03-22T03:52:34;100764.78;;;10.75;82.55
72921;BME280;61064;51.654;5.476;2023-03-22T03:54:59;100735.41;;;10.57;82.58
72921;BME280;61064;51.654;5.476;2023-03-22T03:57:25;100736.31;;;10.58;82.52
72921;BME280;61064;51.654;5.476;2023-03-22T03:59:50;100748.75;;;10.63;82.60
72921;BME280;61064;51.654;5.476;2023-03-22T04:02:18;100767.38;;;10.71;82.44
72921;BME280;61064;51.654;5.476;2023-03-22T04:04:44;100747.81;;;10.52;82.59
72921;BME280;61064;51.654;5.476;2023-03-22T04:07:10;100769.16;;;10.67;82.48
72921;BME280;61064;51.654;5.476;2023-03-22T04:09:37;100729.16;;;10.46;82.61
72921;BME280;61064;51.654;5.476;2023-03-22T04:12:03;100732.69;;;10.43;82.29
72921;BME280;61064;51.654;5.476;2023-03-22T04:14:28;100740.72;;;10.54;82.56
72921;BME280;61064;51.654;5.476;2023-03-22T04:16:54;100727.41;;;10.50;82.49
72921;BME280;61064;51.654;5.476;2023-03-22T04:19:21;100747.78;;;10.54;82.60
72921;BME280;61064;51.654;5.476;2023-03-22T04:21:47;100761.16;;;10.58;82.60
72921;BME280;61064;51.654;5.476;2023-03-22T04:24:13;100754.00;;;10.51;82.53
72921;BME280;61064;51.654;5.476;2023-03-22T04:26:39;100753.13;;;10.55;82.62
72921;BME280;61064;51.654;5.476;2023-03-22T04:29:04;100748.66;;;10.48;82.56
72921;BME280;61064;51.654;5.476;2023-03-22T04:31:31;100754.03;;;10.53;82.63
72921;BME280;61064;51.654;5.476;2023-03-22T04:33:57;100710.44;;;10.31;82.47
72921;BME280;61064;51.654;5.476;2023-03-22T04:36:25;100756.66;;;10.51;82.30
72921;BME280;61064;51.654;5.476;2023-03-22T04:38:55;100723.75;;;10.32;82.50
72921;BME280;61064;51.654;5.476;2023-03-22T04:41:20;100711.34;;;10.31;82.55
72921;BME280;61064;51.654;5.476;2023-03-22T04:43:46;100725.56;;;10.36;82.56
72921;BME280;61064;51.654;5.476;2023-03-22T04:46:15;100738.88;;;10.42;82.58
72921;BME280;61064;51.654;5.476;2023-03-22T04:48:41;100742.44;;;10.41;82.53
72921;BME280;61064;51.654;5.476;2023-03-22T04:51:08;100713.97;;;10.22;82.40
72921;BME280;61064;51.654;5.476;2023-03-22T04:53:34;100703.28;;;10.16;82.40
72921;BME280;61064;51.654;5.476;2023-03-22T04:56:04;100711.28;;;10.19;82.50
72921;BME280;61064;51.654;5.476;2023-03-22T04:58:32;100713.09;;;10.23;82.58
72921;BME280;61064;51.654;5.476;2023-03-22T05:00:57;100710.41;;;10.22;82.63
72921;BME280;61064;51.654;5.476;2023-03-22T05:03:22;100730.00;;;10.36;82.49
72921;BME280;61064;51.654;5.476;2023-03-22T05:05:58;100690.84;;;10.15;82.62
72921;BME280;61064;51.654;5.476;2023-03-22T05:08:25;100728.22;;;10.35;82.39
72921;BME280;61064;51.654;5.476;2023-03-22T05:10:56;100715.75;;;10.25;82.60
72921;BME280;61064;51.654;5.476;2023-03-22T05:13:23;100722.00;;;10.30;82.56
72921;BME280;61064;51.654;5.476;2023-03-22T05:15:49;100708.63;;;10.25;82.50
72921;BME280;61064;51.654;5.476;2023-03-22T05:18:17;100710.44;;;10.25;82.57
72921;BME280;61064;51.654;5.476;2023-03-22T05:20:45;100691.72;;;10.14;82.55
72921;BME280;61064;51.654;5.476;2023-03-22T05:23:11;100708.63;;;10.21;82.66
72921;BME280;61064;51.654;5.476;2023-03-22T05:25:37;100675.72;;;10.05;82.63
72921;BME280;61064;51.654;5.476;2023-03-22T05:28:03;100711.34;;;10.28;82.55
72921;BME280;61064;51.654;5.476;2023-03-22T05:30:29;100721.06;;;10.28;82.86
72921;BME280;61064;51.654;5.476;2023-03-22T05:33:03;100707.72;;;10.17;82.63
72921;BME280;61064;51.654;5.476;2023-03-22T05:35:33;100725.47;;;10.26;82.52
72921;BME280;61064;51.654;5.476;2023-03-22T05:37:59;100704.09;;;10.11;82.61
72921;BME280;61064;51.654;5.476;2023-03-22T05:40:26;100649.94;;;9.86;82.40
72921;BME280;61064;51.654;5.476;2023-03-22T05:42:52;100721.94;;;10.27;82.57
72921;BME280;61064;51.654;5.476;2023-03-22T05:45:18;100689.03;;;10.08;82.54
72921;BME280;61064;51.654;5.476;2023-03-22T05:47:44;100722.81;;;10.26;82.43
72921;BME280;61064;51.654;5.476;2023-03-22T05:50:12;100718.41;;;10.25;82.33
72921;BME280;61064;51.654;5.476;2023-03-22T05:52:38;100702.34;;;10.16;82.45
72921;BME280;61064;51.654;5.476;2023-03-22T05:55:04;100687.25;;;10.02;82.47
72921;BME280;61064;51.654;5.476;2023-03-22T05:57:30;100725.44;;;10.20;82.32
72921;BME280;61064;51.654;5.476;2023-03-22T05:59:56;100704.09;;;10.11;82.28
72921;BME280;61064;51.654;5.476;2023-03-22T06:02:22;100731.69;;;10.23;82.21
72921;BME280;61064;51.654;5.476;2023-03-22T06:04:48;100665.00;;;9.93;82.10
72921;BME280;61064;51.654;5.476;2023-03-22T06:07:14;100721.06;;;10.25;82.04
72921;BME280;61064;51.654;5.476;2023-03-22T06:09:39;100722.81;;;10.26;82.19
72921;BME280;61064;51.654;5.476;2023-03-22T06:12:06;100726.41;;;10.28;82.03
72921;BME280;61064;51.654;5.476;2023-03-22T06:14:31;100711.34;;;10.28;82.02
72921;BME280;61064;51.654;5.476;2023-03-22T06:16:57;100707.75;;;10.19;81.91
72921;BME280;61064;51.654;5.476;2023-03-22T06:19:22;100678.41;;;10.10;82.01
72921;BME280;61064;51.654;5.476;2023-03-22T06:21:50;100652.66;;;9.99;81.88
72921;BME280;61064;51.654;5.476;2023-03-22T06:24:17;100656.19;;;10.00;81.92
72921;BME280;61064;51.654;5.476;2023-03-22T06:26:43;100656.19;;;10.03;81.72
72921;BME280;61064;51.654;5.476;2023-03-22T06:29:08;100698.91;;;10.27;81.80
72921;BME280;61064;51.654;5.476;2023-03-22T06:31:33;100669.53;;;10.11;81.70
72921;BME280;61064;51.654;5.476;2023-03-22T06:33:59;100690.94;;;10.29;81.64
72921;BME280;61064;51.654;5.476;2023-03-22T06:36:24;100668.75;;;10.18;81.65
72921;BME280;61064;51.654;5.476;2023-03-22T06:38:50;100715.84;;;10.45;81.57
72921;BME280;61064;51.654;5.476;2023-03-22T06:41:15;100696.25;;;10.26;81.41
72921;BME280;61064;51.654;5.476;2023-03-22T06:43:40;100694.53;;;10.34;81.41
72921;BME280;61064;51.654;5.476;2023-03-22T06:46:06;100721.19;;;10.46;81.30
72921;BME280;61064;51.654;5.476;2023-03-22T06:48:31;100567.41;;;9.60;80.95
72921;BME280;61064;51.654;5.476;2023-03-22T06:50:56;100678.53;;;10.28;81.23
72921;BME280;61064;51.654;5.476;2023-03-22T06:53:21;100686.56;;;10.40;81.12
72921;BME280;61064;51.654;5.476;2023-03-22T06:55:47;100638.53;;;10.14;81.11
72921;BME280;61064;51.654;5.476;2023-03-22T06:58:12;100720.38;;;10.65;81.25
72921;BME280;61064;51.654;5.476;2023-03-22T07:00:38;100715.94;;;10.70;81.14
72921;BME280;61064;51.654;5.476;2023-03-22T07:03:04;100715.06;;;10.76;80.98
72921;BME280;61064;51.654;5.476;2023-03-22T07:05:29;100722.22;;;10.83;80.87
72921;BME280;61064;51.654;5.476;2023-03-22T07:07:55;100720.47;;;10.90;80.74
72921;BME280;61064;51.654;5.476;2023-03-22T07:10:21;100688.47;;;10.77;80.56
72921;BME280;61064;51.654;5.476;2023-03-22T07:12:46;100715.16;;;10.99;80.42
72921;BME280;61064;51.654;5.476;2023-03-22T07:15:12;100681.41;;;10.81;80.33
72921;BME280;61064;51.654;5.476;2023-03-22T07:17:37;100653.91;;;10.74;80.32
72921;BME280;61064;51.654;5.476;2023-03-22T07:20:03;100653.00;;;10.74;80.24
72921;BME280;61064;51.654;5.476;2023-03-22T07:22:28;100704.53;;;11.05;80.27
72921;BME280;61064;51.654;5.476;2023-03-22T07:24:54;100716.06;;;11.07;80.29
72921;BME280;61064;51.654;5.476;2023-03-22T07:27:19;100718.75;;;11.07;80.17
72921;BME280;61064;51.654;5.476;2023-03-22T07:29:45;100678.75;;;10.87;80.36
72921;BME280;61064;51.654;5.476;2023-03-22T07:32:10;100710.75;;;11.10;80.04
72921;BME280;61064;51.654;5.476;2023-03-22T07:34:36;100725.84;;;11.12;79.87
72921;BME280;61064;51.654;5.476;2023-03-22T07:37:01;100729.41;;;11.14;79.93
72921;BME280;61064;51.654;5.476;2023-03-22T07:39:27;100708.06;;;11.04;79.80
72921;BME280;61064;51.654;5.476;2023-03-22T07:41:54;100711.63;;;11.10;79.89
72921;BME280;61064;51.654;5.476;2023-03-22T07:44:19;100715.19;;;11.12;79.42
72921;BME280;61064;51.654;5.476;2023-03-22T07:46:45;100733.84;;;11.21;79.59
72921;BME280;61064;51.654;5.476;2023-03-22T07:49:13;100726.72;;;11.20;79.38
72921;BME280;61064;51.654;5.476;2023-03-22T07:51:39;100683.22;;;10.96;79.28
72921;BME280;61064;51.654;5.476;2023-03-22T07:54:05;100635.28;;;10.70;79.21
72921;BME280;61064;51.654;5.476;2023-03-22T07:56:31;100672.56;;;10.96;79.06
72921;BME280;61064;51.654;5.476;2023-03-22T07:58:56;100705.44;;;11.11;79.04
72921;BME280;61064;51.654;5.476;2023-03-22T08:01:21;100700.13;;;11.14;78.82
72921;BME280;61064;51.654;5.476;2023-03-22T08:03:49;100725.88;;;11.32;78.87
72921;BME280;61064;51.654;5.476;2023-03-22T08:06:14;100740.09;;;11.34;78.87
72921;BME280;61064;51.654;5.476;2023-03-22T08:08:40;100717.88;;;11.29;78.61
72921;BME280;61064;51.654;5.476;2023-03-22T08:11:06;100726.78;;;11.39;78.50
72921;BME280;61064;51.654;5.476;2023-03-22T08:13:32;100713.47;;;11.31;78.43
72921;BME280;61064;51.654;5.476;2023-03-22T08:15:57;100743.66;;;11.45;78.36
72921;BME280;61064;51.654;5.476;2023-03-22T08:18:23;100726.81;;;11.48;78.13
72921;BME280;61064;51.654;5.476;2023-03-22T08:20:56;100730.34;;;11.50;77.70
72921;BME280;61064;51.654;5.476;2023-03-22T08:23:22;100681.50;;;11.25;77.83
72921;BME280;61064;51.654;5.476;2023-03-22T08:25:48;100725.03;;;11.59;77.73
72921;BME280;61064;51.654;5.476;2023-03-22T08:28:14;100707.28;;;11.53;77.42
72921;BME280;61064;51.654;5.476;2023-03-22T08:30:41;100713.47;;;11.67;77.19
72921;BME280;61064;51.654;5.476;2023-03-22T08:33:06;100722.41;;;11.74;77.15
72921;BME280;61064;51.654;5.476;2023-03-22T08:35:32;100657.53;;;11.45;76.95
72921;BME280;61064;51.654;5.476;2023-03-22T08:37:57;100713.50;;;11.86;76.86
72921;BME280;61064;51.654;5.476;2023-03-22T08:40:23;100681.50;;;11.83;76.64
72921;BME280;61064;51.654;5.476;2023-03-22T08:42:49;100712.59;;;12.00;76.46
72921;BME280;61064;51.654;5.476;2023-03-22T08:45:14;100708.13;;;12.04;76.38
72921;BME280;61064;51.654;5.476;2023-03-22T08:47:40;100721.44;;;12.10;76.02
72921;BME280;61064;51.654;5.476;2023-03-22T08:50:06;100659.31;;;11.87;75.92
72921;BME280;61064;51.654;5.476;2023-03-22T08:52:33;100663.69;;;11.98;75.78
72921;BME280;61064;51.654;5.476;2023-03-22T08:54:58;100685.91;;;12.06;75.71
72921;BME280;61064;51.654;5.476;2023-03-22T08:57:23;100702.75;;;12.27;75.55
72921;BME280;61064;51.654;5.476;2023-03-22T08:59:52;100686.75;;;12.22;75.54
72921;BME280;61064;51.654;5.476;2023-03-22T09:02:18;100712.50;;;12.38;75.15
72921;BME280;61064;51.654;5.476;2023-03-22T09:04:43;100660.94;;;12.27;74.93
72921;BME280;61064;51.654;5.476;2023-03-22T09:07:08;100670.75;;;12.28;74.79
72921;BME280;61064;51.654;5.476;2023-03-22T09:09:34;100697.34;;;12.45;74.99
72921;BME280;61064;51.654;5.476;2023-03-22T09:12:00;100698.19;;;12.56;74.42
72921;BME280;61064;51.654;5.476;2023-03-22T09:14:26;100692.84;;;12.61;74.48
72921;BME280;61064;51.654;5.476;2023-03-22T09:16:51;100669.78;;;12.44;74.35
72921;BME280;61064;51.654;5.476;2023-03-22T09:19:16;100697.28;;;12.65;74.01
72921;BME280;61064;51.654;5.476;2023-03-22T09:21:42;100685.69;;;12.66;73.78
72921;BME280;61064;51.654;5.476;2023-03-22T09:24:07;100644.91;;;12.42;73.79
72921;BME280;61064;51.654;5.476;2023-03-22T09:26:33;100640.44;;;12.47;73.60
72921;BME280;61064;51.654;5.476;2023-03-22T09:28:59;100698.09;;;12.77;73.45
72921;BME280;61064;51.654;5.476;2023-03-22T09:31:25;100648.38;;;12.58;73.33
72921;BME280;61064;51.654;5.476;2023-03-22T09:33:50;100659.03;;;12.61;73.15
72921;BME280;61064;51.654;5.476;2023-03-22T09:36:16;100562.34;;;12.14;72.74
72921;BME280;61064;51.654;5.476;2023-03-22T09:38:41;100686.53;;;12.78;72.88
72921;BME280;61064;51.654;5.476;2023-03-22T09:41:41;100667.94;;;12.65;72.91
72921;BME280;61064;51.654;5.476;2023-03-22T09:44:41;100665.25;;;12.69;72.87
72921;BME280;61064;51.654;5.476;2023-03-22T09:47:09;100688.31;;;12.76;72.75
72921;BME280;61064;51.654;5.476;2023-03-22T09:49:39;100632.44;;;12.46;72.36
72921;BME280;61064;51.654;5.476;2023-03-22T09:52:13;100668.78;;;12.67;72.23
72921;BME280;61064;51.654;5.476;2023-03-22T09:54:40;100680.34;;;12.75;72.13
72921;BME280;61064;51.654;5.476;2023-03-22T09:57:21;100685.66;;;12.75;72.41
72921;BME280;61064;51.654;5.476;2023-03-22T09:59:57;100685.66;;;12.75;72.17
72921;BME280;61064;51.654;5.476;2023-03-22T10:02:31;100683.88;;;12.75;72.18
72921;BME280;61064;51.654;5.476;2023-03-22T10:06:09;100652.84;;;12.52;72.01
72921;BME280;61064;51.654;5.476;2023-03-22T10:10:36;100622.69;;;12.42;72.05
72921;BME280;61064;51.654;5.476;2023-03-22T10:13:15;100683.84;;;12.77;71.85
72921;BME280;61064;51.654;5.476;2023-03-22T10:16:06;100667.06;;;12.57;71.73
72921;BME280;61064;51.654;5.476;2023-03-22T10:18:37;100702.59;;;12.68;71.98
72921;BME280;61064;51.654;5.476;2023-03-22T10:21:05;100661.78;;;12.46;72.07
72921;BME280;61064;51.654;5.476;2023-03-22T10:26:15;100694.69;;;12.48;72.41
72921;BME280;61064;51.654;5.476;2023-03-22T10:28:43;100708.91;;;12.52;72.70
72921;BME280;61064;51.654;5.476;2023-03-22T10:31:14;100684.97;;;12.30;73.11
72921;BME280;61064;51.654;5.476;2023-03-22T10:36:17;100636.22;;;11.80;74.07
72921;BME280;61064;51.654;5.476;2023-03-22T10:38:48;100687.72;;;11.97;74.70
72921;BME280;61064;51.654;5.476;2023-03-22T10:41:19;100710.81;;;11.98;75.16
72921;BME280;61064;51.654;5.476;2023-03-22T10:43:50;100663.72;;;11.60;75.57
72921;BME280;61064;51.654;5.476;2023-03-22T10:46:20;100704.63;;;11.75;75.96
72921;BME280;61064;51.654;5.476;2023-03-22T10:48:52;100712.56;;;11.72;76.46
72921;BME280;61064;51.654;5.476;2023-03-22T10:51:25;100708.16;;;11.63;77.04
72921;BME280;61064;51.654;5.476;2023-03-22T10:53:53;100705.50;;;11.64;77.23
72921;BME280;61064;51.654;5.476;2023-03-22T10:56:20;100702.81;;;11.63;77.56
72921;BME280;61064;51.654;5.476;2023-03-22T10:58:47;100691.28;;;11.53;77.82
72921;BME280;61064;51.654;5.476;2023-03-22T11:01:15;100685.94;;;11.47;78.13
72921;BME280;61064;51.654;5.476;2023-03-22T11:03:43;100725.00;;;11.51;78.39
72921;BME280;61064;51.654;5.476;2023-03-22T11:06:18;100716.16;;;11.48;78.73
72921;BME280;61064;51.654;5.476;2023-03-22T11:08:56;100698.38;;;11.35;79.09
72921;BME280;61064;51.654;5.476;2023-03-22T11:11:25;100684.16;;;11.23;79.29
72921;BME280;61064;51.654;5.476;2023-03-22T11:16:22;100694.81;;;11.34;79.66
72921;BME280;61064;51.654;5.476;2023-03-22T11:18:47;100702.81;;;11.40;79.89
72921;BME280;61064;51.654;5.476;2023-03-22T11:21:15;100700.13;;;11.43;80.15
72921;BME280;61064;51.654;5.476;2023-03-22T11:23:54;100693.03;;;11.45;80.11
72921;BME280;61064;51.654;5.476;2023-03-22T11:26:33;100673.50;;;11.43;80.30
72921;BME280;61064;51.654;5.476;2023-03-22T11:29:05;100685.03;;;11.54;80.47
72921;BME280;61064;51.654;5.476;2023-03-22T11:31:49;100687.72;;;11.57;80.56
72921;BME280;61064;51.654;5.476;2023-03-22T11:34:18;100682.38;;;11.60;80.40
72921;BME280;61064;51.654;5.476;2023-03-22T11:36:45;100690.41;;;11.74;80.40
72921;BME280;61064;51.654;5.476;2023-03-22T11:39:16;100644.19;;;11.54;80.41
72921;BME280;61064;51.654;5.476;2023-03-22T11:41:43;100616.69;;;11.41;80.33
72921;BME280;61064;51.654;5.476;2023-03-22T11:44:12;100697.50;;;11.84;80.55
72921;BME280;61064;51.654;5.476;2023-03-22T11:46:38;100645.06;;;11.66;80.40
72921;BME280;61064;51.654;5.476;2023-03-22T11:49:13;100655.75;;;11.79;80.36
72921;BME280;61064;51.654;5.476;2023-03-22T11:51:41;100685.91;;;11.93;80.26
72921;BME280;61064;51.654;5.476;2023-03-22T11:56:47;100667.31;;;11.87;79.81
72921;BME280;61064;51.654;5.476;2023-03-22T11:59:23;100639.75;;;11.63;79.77
72921;BME280;61064;51.654;5.476;2023-03-22T12:01:54;100649.53;;;11.81;79.61
72921;BME280;61064;51.654;5.476;2023-03-22T12:04:24;100651.31;;;11.87;79.58
72921;BME280;61064;51.654;5.476;2023-03-22T12:06:54;100665.50;;;11.90;79.72
72921;BME280;61064;51.654;5.476;2023-03-22T12:09:24;100640.63;;;11.82;79.61
72921;BME280;61064;51.654;5.476;2023-03-22T12:11:54;100582.03;;;11.55;79.25
72921;BME280;61064;51.654;5.476;2023-03-22T12:14:46;100645.94;;;11.97;79.34
72921;BME280;61064;51.654;5.476;2023-03-22T12:17:13;100666.38;;;12.00;78.98
72921;BME280;61064;51.654;5.476;2023-03-22T12:19:52;100639.72;;;11.89;78.76
72921;BME280;61064;51.654;5.476;2023-03-22T12:22:28;100673.44;;;12.10;78.95
72921;BME280;61064;51.654;5.476;2023-03-22T12:24:55;100653.03;;;12.01;78.79
72921;BME280;61064;51.654;5.476;2023-03-22T12:27:26;100671.69;;;12.12;78.70
72921;BME280;61064;51.654;5.476;2023-03-22T12:30:02;100672.56;;;12.13;78.68
72921;BME280;61064;51.654;5.476;2023-03-22T12:32:33;100667.25;;;12.14;78.58
72921;BME280;61064;51.654;5.476;2023-03-22T12:35:00;100650.38;;;12.01;78.62
72921;BME280;61064;51.654;5.476;2023-03-22T12:37:33;100675.22;;;12.17;78.53
72921;BME280;61064;51.654;5.476;2023-03-22T12:40:07;100666.31;;;12.21;78.41
72921;BME280;61064;51.654;5.476;2023-03-22T12:42:59;100666.31;;;12.24;78.51
72921;BME280;61064;51.654;5.476;2023-03-22T12:45:28;100668.97;;;12.29;78.27
72921;BME280;61064;51.654;5.476;2023-03-22T12:48:15;100653.88;;;12.19;78.15
72921;BME280;61064;51.654;5.476;2023-03-22T12:50:56;100674.28;;;12.33;77.92
72921;BME280;61064;51.654;5.476;2023-03-22T12:53:27;100629.00;;;12.11;77.77
72921;BME280;61064;51.654;5.476;2023-03-22T12:55:55;100648.53;;;12.23;77.66
72921;BME280;61064;51.654;5.476;2023-03-22T12:58:22;100660.94;;;12.36;77.73
72921;BME280;61064;51.654;5.476;2023-03-22T13:03:50;100631.66;;;12.11;77.55
72921;BME280;61064;51.654;5.476;2023-03-22T13:09:34;100653.78;;;12.43;77.53
72921;BME280;61064;51.654;5.476;2023-03-22T13:27:40;100655.53;;;12.53;76.79
72921;BME280;61064;51.654;5.476;2023-03-22T13:30:22;100634.25;;;12.33;76.70
72921;BME280;61064;51.654;5.476;2023-03-22T13:35:48;100666.16;;;12.55;76.85
72921;BME280;61064;51.654;5.476;2023-03-22T13:40:55;100648.44;;;12.44;76.76
72921;BME280;61064;51.654;5.476;2023-03-22T13:43:45;100621.84;;;12.28;76.76
72921;BME280;61064;51.654;5.476;2023-03-22T13:46:26;100653.78;;;12.46;76.86
72921;BME280;61064;51.654;5.476;2023-03-22T13:48:56;100640.47;;;12.40;76.93
72921;BME280;61064;51.654;5.476;2023-03-22T13:51:36;100629.81;;;12.37;76.88
72921;BME280;61064;51.654;5.476;2023-03-22T13:54:09;100644.94;;;12.36;77.14
72921;BME280;61064;51.654;5.476;2023-03-22T14:04:56;100661.75;;;12.49;77.13
72921;BME280;61064;51.654;5.476;2023-03-22T14:07:30;100598.75;;;12.25;77.12
72921;BME280;61064;51.654;5.476;2023-03-22T14:15:54;100649.31;;;12.53;77.25
72921;BME280;61064;51.654;5.476;2023-03-22T14:18:25;100653.75;;;12.54;77.56
72921;BME280;61064;51.654;5.476;2023-03-22T14:20:56;100620.00;;;12.37;77.52